Time;durP1;ratioP1;P1;durP2;ratioP2;P2;SDS_P1;SDS_P2;PMS_P1;PMS_P2;Temp;Humidity;BMP_temperature;BMP_pressure;BME280_temperature;BME280_humidity;BME280_pressure;Samples;Min_cycle;Max_cycle;Signal;HPM_P1;HPM_P2
2022/11/30 00:00:36;;;;;;;19.95;14.38;;;8.30;89.40;;;;;;5007631;28;20064;-64
2022/11/30 00:03:02;;;;;;;19.90;13.98;;;8.30;89.40;;;;;;5005176;28;20446;-64
2022/11/30 00:05:27;;;;;;;19.90;14.38;;;8.30;89.50;;;;;;5008148;28;20045;-64
2022/11/30 00:07:53;;;;;;;21.52;14.23;;;8.30;89.50;;;;;;5008183;28;20084;-64
2022/11/30 00:10:20;;;;;;;20.75;14.05;;;8.30;89.30;;;;;;5012298;28;20112;-64
2022/11/30 00:12:45;;;;;;;19.33;13.70;;;8.30;89.30;;;;;;5009062;28;20428;-64
2022/11/30 00:15:13;;;;;;;19.55;14.05;;;8.30;89.30;;;;;;5011808;28;20420;-64
2022/11/30 00:17:43;;;;;;;21.17;14.52;;;8.30;89.30;;;;;;5013484;28;20128;-62
2022/11/30 00:20:10;;;;;;;21.80;15.25;;;8.30;89.20;;;;;;5011823;28;20045;-64
2022/11/30 00:22:35;;;;;;;20.92;14.88;;;8.30;89.20;;;;;;5009781;28;20707;-62
2022/11/30 00:25:03;;;;;;;20.98;14.77;;;8.30;89.00;;;;;;5007920;28;20142;-64
2022/11/30 00:27:30;;;;;;;20.98;15.00;;;8.30;89.10;;;;;;5009254;28;20041;-63
2022/11/30 00:29:56;;;;;;;21.83;14.95;;;8.30;89.20;;;;;;5010056;28;20034;-62
2022/11/30 00:32:22;;;;;;;20.20;14.50;;;8.30;89.20;;;;;;5008701;28;20096;-64
2022/11/30 00:34:47;;;;;;;20.85;14.25;;;8.30;89.20;;;;;;5007913;28;20064;-64
2022/11/30 00:37:13;;;;;;;22.05;14.93;;;8.30;89.20;;;;;;5007858;28;20061;-63
2022/11/30 00:39:39;;;;;;;18.55;13.85;;;8.30;89.30;;;;;;5008637;28;20080;-64
2022/11/30 00:42:04;;;;;;;19.23;13.77;;;8.30;89.20;;;;;;5006460;28;20053;-64
2022/11/30 00:44:30;;;;;;;20.27;14.40;;;8.30;89.20;;;;;;5010650;28;20425;-64
2022/11/30 00:46:56;;;;;;;20.35;14.38;;;8.30;89.20;;;;;;5009640;28;20117;-63
2022/11/30 00:49:21;;;;;;;19.67;14.27;;;8.30;89.10;;;;;;5005027;28;20040;-63
2022/11/30 00:51:47;;;;;;;19.95;14.23;;;8.30;89.20;;;;;;5015716;28;20053;-64
2022/11/30 00:54:12;;;;;;;21.98;15.02;;;8.30;89.10;;;;;;5017879;28;20049;-64
2022/11/30 00:56:38;;;;;;;21.52;15.38;;;8.30;89.00;;;;;;5011989;28;20148;-64
2022/11/30 00:59:04;;;;;;;21.70;15.10;;;8.30;89.00;;;;;;5012021;28;20572;-64
2022/11/30 01:01:30;;;;;;;22.40;15.70;;;8.30;89.10;;;;;;5012463;28;20033;-63
2022/11/30 01:03:56;;;;;;;21.42;14.93;;;8.30;89.00;;;;;;5013518;28;20520;-64
2022/11/30 01:06:22;;;;;;;20.60;15.02;;;8.30;89.10;;;;;;5011581;28;20034;-63
2022/11/30 01:08:47;;;;;;;21.38;14.68;;;8.30;89.10;;;;;;5013913;28;20045;-64
2022/11/30 01:11:31;;;;;;;21.55;15.18;;;8.30;89.20;;;;;;5010071;28;20056;-62
2022/11/30 01:13:58;;;;;;;21.85;14.85;;;8.30;89.30;;;;;;5015411;28;20037;-63
2022/11/30 01:16:27;;;;;;;23.48;15.30;;;8.30;89.20;;;;;;5014992;28;20151;-63
2022/11/30 01:18:52;;;;;;;20.58;14.50;;;8.30;89.30;;;;;;5015779;28;20327;-64
2022/11/30 01:21:20;;;;;;;19.48;14.15;;;8.30;89.20;;;;;;5013233;28;20540;-64
2022/11/30 01:23:46;;;;;;;22.75;14.90;;;8.30;89.20;;;;;;5004588;28;20030;-64
2022/11/30 01:26:13;;;;;;;22.48;14.95;;;8.30;89.10;;;;;;5008009;28;20980;-63
2022/11/30 01:28:43;;;;;;;22.08;15.40;;;8.30;89.20;;;;;;5011842;28;20494;-63
2022/11/30 01:31:10;;;;;;;22.83;15.48;;;8.20;89.00;;;;;;5009476;28;20390;-63
2022/11/30 01:33:36;;;;;;;23.60;15.32;;;8.20;89.20;;;;;;5008058;28;20091;-64
2022/11/30 01:36:05;;;;;;;23.15;15.30;;;8.20;89.20;;;;;;5013111;28;20041;-63
2022/11/30 01:38:33;;;;;;;23.35;15.35;;;8.20;89.30;;;;;;5007919;28;20038;-63
2022/11/30 01:40:58;;;;;;;21.92;14.57;;;8.20;89.40;;;;;;5004835;28;20099;-64
2022/11/30 01:43:42;;;;;;;22.85;15.35;;;8.20;89.50;;;;;;5006796;28;20041;-62
2022/11/30 01:46:43;;;;;;;23.23;14.98;;;8.20;90.10;;;;;;5004805;28;20037;-64
2022/11/30 01:49:09;;;;;;;24.23;15.63;;;8.20;89.40;;;;;;5005549;28;20045;-62
2022/11/30 01:52:00;;;;;;;21.30;14.60;;;8.20;89.30;;;;;;5007418;28;20104;-63
2022/11/30 01:54:33;;;;;;;22.10;14.25;;;8.20;89.20;;;;;;5005012;28;20052;-64
2022/11/30 01:57:06;;;;;;;22.02;14.25;;;8.20;89.20;;;;;;5004672;28;20046;-64
2022/11/30 01:59:32;;;;;;;21.77;14.70;;;8.20;89.20;;;;;;5005672;28;20073;-64
2022/11/30 02:01:58;;;;;;;22.77;15.35;;;8.20;89.30;;;;;;5007429;28;20116;-63
2022/11/30 02:04:33;;;;;;;21.92;14.48;;;8.20;89.30;;;;;;5010228;28;20041;-62
2022/11/30 02:07:01;;;;;;;21.58;14.05;;;8.20;89.20;;;;;;5008339;28;20501;-63
2022/11/30 02:09:27;;;;;;;22.67;14.82;;;8.20;89.20;;;;;;5006134;28;20046;-63
2022/11/30 02:11:53;;;;;;;22.98;13.50;;;8.20;89.20;;;;;;5010290;28;20050;-63
2022/11/30 02:15:00;;;;;;;22.50;14.38;;;8.20;89.30;;;;;;5016826;28;20578;-64
2022/11/30 02:17:59;;;;;;;22.90;14.27;;;8.20;89.00;;;;;;5016141;28;20034;-63
2022/11/30 02:20:42;;;;;;;21.33;13.93;;;8.20;88.80;;;;;;4997838;28;20493;-63
2022/11/30 02:23:13;;;;;;;20.98;13.35;;;8.10;88.60;;;;;;5005861;28;20052;-63
2022/11/30 02:26:16;;;;;;;21.63;14.25;;;8.10;88.60;;;;;;5008956;28;20045;-64
2022/11/30 02:29:08;;;;;;;21.48;13.43;;;8.00;88.10;;;;;;5006781;28;20125;-63
2022/11/30 02:31:40;;;;;;;20.77;13.32;;;8.10;88.10;;;;;;5004374;28;20045;-64
2022/11/30 02:34:08;;;;;;;20.13;13.02;;;8.00;88.10;;;;;;5010895;28;20065;-63
2022/11/30 02:36:35;;;;;;;22.67;13.85;;;7.90;88.10;;;;;;5004901;28;20030;-62
2022/11/30 02:39:01;;;;;;;21.20;13.82;;;7.90;88.00;;;;;;5004903;28;20057;-63
2022/11/30 02:41:34;;;;;;;21.42;14.05;;;7.80;87.80;;;;;;5004982;28;20487;-64
2022/11/30 02:44:00;;;;;;;23.20;14.10;;;7.80;87.60;;;;;;5003442;28;20034;-62
2022/11/30 02:47:11;;;;;;;21.30;13.32;;;7.80;87.80;;;;;;5006504;28;20049;-63
2022/11/30 02:49:46;;;;;;;20.58;13.23;;;7.70;87.60;;;;;;5008976;28;20468;-62
2022/11/30 02:52:13;;;;;;;21.60;13.80;;;7.70;87.80;;;;;;5004523;28;20183;-63
2022/11/30 02:54:39;;;;;;;21.55;14.02;;;7.70;88.00;;;;;;5008562;28;20461;-63
2022/11/30 02:57:05;;;;;;;22.13;14.20;;;7.60;88.00;;;;;;5003485;28;20201;-63
2022/11/30 02:59:31;;;;;;;23.38;14.80;;;7.60;88.00;;;;;;5006314;28;20045;-63
2022/11/30 03:01:57;;;;;;;22.92;14.25;;;7.60;88.00;;;;;;5005809;28;20072;-63
2022/11/30 03:04:22;;;;;;;22.20;14.32;;;7.60;88.10;;;;;;5005035;28;20038;-63
2022/11/30 03:06:48;;;;;;;23.80;14.68;;;7.60;88.00;;;;;;5014233;28;20045;-64
2022/11/30 03:09:14;;;;;;;22.75;14.15;;;7.60;88.10;;;;;;5010857;28;20045;-64
2022/11/30 03:11:39;;;;;;;23.80;14.65;;;7.60;88.10;;;;;;5009192;28;20322;-62
2022/11/30 03:14:05;;;;;;;22.73;14.57;;;7.50;88.00;;;;;;5011855;28;20038;-62
2022/11/30 03:16:30;;;;;;;23.95;15.02;;;7.50;88.00;;;;;;5008761;28;20474;-62
2022/11/30 03:18:57;;;;;;;25.20;14.32;;;7.50;87.90;;;;;;5005435;28;20073;-63
2022/11/30 03:21:22;;;;;;;24.42;14.70;;;7.50;87.90;;;;;;5012106;28;20038;-62
2022/11/30 03:23:48;;;;;;;22.77;14.02;;;7.50;87.90;;;;;;5003937;28;20039;-63
2022/11/30 03:26:14;;;;;;;24.38;15.07;;;7.50;87.90;;;;;;5005575;28;20490;-63
2022/11/30 03:28:39;;;;;;;25.17;15.18;;;7.50;88.00;;;;;;5010723;28;20431;-62
2022/11/30 03:31:09;;;;;;;24.50;15.30;;;7.40;88.00;;;;;;5016188;28;20048;-62
2022/11/30 03:33:35;;;;;;;25.08;14.75;;;7.40;88.00;;;;;;5016483;28;20501;-62
2022/11/30 03:36:01;;;;;;;23.80;15.00;;;7.40;88.10;;;;;;5016399;28;20034;-62
2022/11/30 03:38:27;;;;;;;25.20;15.00;;;7.40;88.10;;;;;;5014512;28;20061;-61
2022/11/30 03:41:10;;;;;;;24.23;15.00;;;7.40;88.10;;;;;;5016557;28;20041;-62
2022/11/30 03:43:35;;;;;;;25.38;15.20;;;7.40;88.00;;;;;;5016271;28;20030;-63
2022/11/30 03:46:01;;;;;;;28.50;17.38;;;7.40;88.10;;;;;;5016116;28;20045;-62
2022/11/30 03:48:27;;;;;;;27.55;16.60;;;7.40;88.10;;;;;;5016048;28;20080;-62
2022/11/30 03:50:53;;;;;;;24.98;16.05;;;7.40;88.00;;;;;;5016122;28;20022;-61
2022/11/30 03:53:20;;;;;;;29.45;16.73;;;7.40;88.10;;;;;;5013371;28;20034;-61
2022/11/30 03:55:50;;;;;;;28.23;17.23;;;7.40;88.10;;;;;;5013814;28;20554;-62
2022/11/30 03:58:15;;;;;;;27.25;16.95;;;7.40;88.10;;;;;;5018436;28;20042;-62
2022/11/30 04:00:41;;;;;;;30.30;18.10;;;7.40;88.10;;;;;;5017651;28;20497;-61
2022/11/30 04:03:06;;;;;;;31.40;18.55;;;7.40;88.10;;;;;;5017700;28;20214;-61
2022/11/30 04:05:32;;;;;;;32.72;19.08;;;7.40;88.20;;;;;;5017729;28;20048;-61
2022/11/30 04:07:58;;;;;;;31.65;19.50;;;7.40;88.30;;;;;;5017206;28;20053;-62
2022/11/30 04:10:23;;;;;;;34.20;19.77;;;7.30;88.30;;;;;;5018356;28;20048;-62
2022/11/30 04:12:49;;;;;;;33.40;19.10;;;7.40;88.30;;;;;;5014534;28;20029;-61
2022/11/30 04:15:14;;;;;;;32.65;19.38;;;7.30;88.30;;;;;;5018083;28;20034;-62
2022/11/30 04:17:40;;;;;;;32.38;19.20;;;7.30;88.30;;;;;;5018439;28;20370;-62
2022/11/30 04:20:06;;;;;;;32.08;19.75;;;7.30;88.30;;;;;;5018553;28;20045;-62
2022/11/30 04:22:32;;;;;;;34.42;19.50;;;7.30;88.20;;;;;;5012325;28;20529;-61
2022/11/30 04:24:58;;;;;;;34.33;19.63;;;7.30;88.30;;;;;;4996731;28;20049;-63
2022/11/30 04:27:24;;;;;;;32.38;19.85;;;7.30;88.30;;;;;;5010405;28;20248;-61
2022/11/30 04:29:49;;;;;;;34.67;20.60;;;7.30;88.30;;;;;;5014322;28;20033;-63
2022/11/30 04:32:15;;;;;;;32.22;19.25;;;7.30;88.30;;;;;;5006689;28;20030;-63
2022/11/30 04:34:40;;;;;;;32.78;18.80;;;7.20;88.30;;;;;;5008170;28;21643;-62
2022/11/30 04:37:06;;;;;;;34.17;18.95;;;7.20;88.50;;;;;;5009716;28;20052;-62
2022/11/30 04:39:33;;;;;;;32.83;19.40;;;7.20;88.50;;;;;;5014319;28;20026;-61
2022/11/30 04:41:58;;;;;;;32.95;19.17;;;7.30;88.50;;;;;;5011933;28;20439;-63
2022/11/30 04:44:24;;;;;;;34.13;19.38;;;7.20;88.50;;;;;;5008444;28;20037;-63
2022/11/30 04:46:50;;;;;;;34.90;20.02;;;7.20;88.50;;;;;;5007585;28;21338;-61
2022/11/30 04:49:15;;;;;;;31.73;18.33;;;7.20;88.50;;;;;;5007521;28;20034;-63
2022/11/30 04:51:41;;;;;;;32.67;18.85;;;7.20;88.50;;;;;;5011184;28;20042;-62
2022/11/30 04:54:06;;;;;;;31.63;18.58;;;7.20;88.50;;;;;;5012255;28;20039;-61
2022/11/30 04:56:33;;;;;;;33.38;19.15;;;7.20;88.70;;;;;;5006174;28;20521;-61
2022/11/30 04:59:00;;;;;;;34.20;20.15;;;7.20;88.70;;;;;;5008903;28;20045;-62
2022/11/30 05:01:25;;;;;;;36.17;20.60;;;7.20;88.50;;;;;;5012355;28;20042;-63
2022/11/30 05:03:51;;;;;;;35.63;19.95;;;7.20;88.50;;;;;;5012561;28;20096;-60
2022/11/30 05:06:17;;;;;;;39.08;21.02;;;7.20;88.50;;;;;;5011078;28;20048;-63
2022/11/30 05:08:42;;;;;;;37.90;21.08;;;7.20;89.30;;;;;;5009851;28;20036;-62
2022/11/30 05:11:08;;;;;;;41.25;22.00;;;7.20;88.60;;;;;;5010448;28;20046;-61
2022/11/30 05:13:33;;;;;;;47.25;24.67;;;7.20;88.60;;;;;;5006247;28;20029;-63
2022/11/30 05:15:59;;;;;;;50.65;26.17;;;7.20;88.70;;;;;;5005927;28;20135;-62
2022/11/30 05:18:25;;;;;;;41.10;23.02;;;7.20;88.80;;;;;;5010854;28;20053;-62
2022/11/30 05:20:52;;;;;;;39.53;21.48;;;7.20;88.80;;;;;;5017547;28;20061;-62
2022/11/30 05:23:18;;;;;;;33.92;19.35;;;7.30;88.70;;;;;;5016511;28;20052;-63
2022/11/30 05:25:44;;;;;;;30.55;18.35;;;7.30;88.70;;;;;;5015315;28;20406;-63
2022/11/30 05:28:10;;;;;;;28.92;16.77;;;7.30;88.60;;;;;;5014201;28;20042;-62
2022/11/30 05:30:40;;;;;;;29.83;17.63;;;7.30;88.50;;;;;;5016948;28;20115;-63
2022/11/30 05:33:06;;;;;;;31.27;18.70;;;7.30;88.50;;;;;;5016189;28;20305;-63
2022/11/30 05:35:32;;;;;;;31.05;18.80;;;7.30;88.50;;;;;;5016098;28;20597;-61
2022/11/30 05:37:58;;;;;;;34.67;20.17;;;7.30;88.30;;;;;;5016738;28;20041;-61
2022/11/30 05:40:24;;;;;;;34.50;19.88;;;7.30;88.40;;;;;;5016569;28;20044;-61
2022/11/30 05:42:57;;;;;;;38.03;21.13;;;7.30;88.50;;;;;;5014457;28;20034;-63
2022/11/30 05:45:23;;;;;;;38.53;21.80;;;7.20;88.30;;;;;;5016477;28;20065;-63
2022/11/30 05:47:49;;;;;;;35.15;20.63;;;7.20;88.30;;;;;;5016221;28;20041;-61
2022/11/30 05:50:15;;;;;;;38.42;21.75;;;7.20;88.50;;;;;;5014328;28;20458;-62
2022/11/30 05:52:40;;;;;;;38.65;21.73;;;7.20;88.60;;;;;;5014301;28;20689;-62
2022/11/30 05:55:06;;;;;;;36.20;21.30;;;7.10;88.40;;;;;;5014193;28;20600;-61
2022/11/30 05:57:36;;;;;;;38.50;23.08;;;7.10;88.60;;;;;;5017444;28;20049;-63
2022/11/30 06:00:04;;;;;;;36.85;20.98;;;7.10;88.80;;;;;;5015541;28;20038;-63
2022/11/30 06:02:29;;;;;;;32.83;19.35;;;7.00;88.80;;;;;;5015847;28;20163;-62
2022/11/30 06:04:55;;;;;;;37.65;22.30;;;7.00;89.10;;;;;;5014322;28;20041;-62
2022/11/30 06:07:21;;;;;;;36.47;21.10;;;7.00;89.20;;;;;;5016910;28;20109;-62
2022/11/30 06:09:46;;;;;;;34.97;20.48;;;7.00;89.30;;;;;;5018100;28;20069;-62
2022/11/30 06:12:12;;;;;;;35.33;20.45;;;7.00;89.30;;;;;;5014908;28;20049;-62
2022/11/30 06:14:37;;;;;;;37.53;21.08;;;6.90;89.30;;;;;;5017748;28;20037;-61
2022/11/30 06:17:03;;;;;;;36.80;21.90;;;7.00;89.40;;;;;;5017514;28;20045;-62
2022/11/30 06:19:29;;;;;;;35.85;20.60;;;7.00;89.30;;;;;;5014361;28;20040;-62
2022/11/30 06:21:54;;;;;;;40.38;21.85;;;7.00;89.20;;;;;;5015515;28;20037;-62
2022/11/30 06:24:20;;;;;;;38.53;21.15;;;7.00;89.20;;;;;;5015555;28;20187;-61
2022/11/30 06:26:45;;;;;;;40.90;22.60;;;7.00;89.20;;;;;;4998732;28;20308;-61
2022/11/30 06:29:11;;;;;;;41.92;22.38;;;7.10;89.30;;;;;;5015399;28;20045;-62
2022/11/30 06:31:36;;;;;;;37.83;22.15;;;7.10;89.30;;;;;;5016737;28;20421;-62
2022/11/30 06:34:02;;;;;;;38.42;22.65;;;7.10;89.00;;;;;;5014799;28;20502;-61
2022/11/30 06:36:28;;;;;;;39.78;23.00;;;7.10;89.00;;;;;;4998050;28;20042;-61
2022/11/30 06:38:54;;;;;;;40.25;22.70;;;7.10;89.90;;;;;;5015303;28;20482;-63
2022/11/30 06:41:20;;;;;;;41.58;22.27;;;7.00;89.00;;;;;;5016817;28;20052;-62
2022/11/30 06:43:46;;;;;;;40.03;22.73;;;7.00;89.00;;;;;;5013383;28;20030;-61
2022/11/30 06:46:11;;;;;;;40.13;22.40;;;7.00;89.00;;;;;;5014582;28;20051;-60
2022/11/30 06:48:37;;;;;;;41.42;23.13;;;7.10;89.20;;;;;;5013074;28;20033;-62
2022/11/30 06:51:07;;;;;;;39.53;22.42;;;7.00;89.20;;;;;;5014222;28;20049;-61
2022/11/30 06:53:33;;;;;;;45.80;23.77;;;7.00;89.20;;;;;;5016649;28;20038;-63
2022/11/30 06:56:03;;;;;;;44.85;24.25;;;7.00;89.20;;;;;;5014819;28;20041;-63
2022/11/30 06:58:29;;;;;;;42.13;23.00;;;7.00;89.10;;;;;;5015115;28;20483;-63
2022/11/30 07:00:54;;;;;;;41.60;23.55;;;7.00;89.20;;;;;;5015312;28;20508;-61
2022/11/30 07:03:20;;;;;;;44.45;22.95;;;7.00;89.30;;;;;;5015342;28;20125;-61
2022/11/30 07:05:45;;;;;;;43.58;23.77;;;7.00;89.40;;;;;;5014140;28;20092;-62
2022/11/30 07:08:13;;;;;;;41.17;23.20;;;7.00;89.30;;;;;;5014223;28;20982;-62
2022/11/30 07:10:46;;;;;;;45.03;24.52;;;6.90;89.30;;;;;;5014235;28;20045;-62
2022/11/30 07:13:14;;;;;;;46.83;25.08;;;7.00;89.30;;;;;;5015246;28;20608;-61
2022/11/30 07:15:41;;;;;;;48.15;25.70;;;6.90;89.20;;;;;;5015536;28;20038;-63
2022/11/30 07:18:08;;;;;;;47.33;24.95;;;6.90;89.30;;;;;;5014809;28;20029;-61
2022/11/30 07:20:34;;;;;;;45.70;24.75;;;6.90;89.20;;;;;;5013813;28;20033;-59
2022/11/30 07:28:27;;;;;;;45.73;23.57;;;6.90;89.30;;;;;;5015850;28;20052;-60
2022/11/30 07:30:53;;;;;;;46.35;23.17;;;6.90;89.30;;;;;;5015498;28;20776;-60
2022/11/30 07:33:18;;;;;;;42.78;23.17;;;6.90;89.30;;;;;;5016917;28;20037;-62
2022/11/30 07:35:45;;;;;;;42.70;22.65;;;6.80;89.30;;;;;;5014707;28;20033;-60
2022/11/30 07:38:10;;;;;;;42.92;22.65;;;6.80;89.30;;;;;;5014936;28;20034;-63
2022/11/30 07:40:36;;;;;;;42.67;22.42;;;6.80;89.30;;;;;;5013314;28;20090;-62
2022/11/30 07:43:01;;;;;;;42.15;22.13;;;6.80;89.30;;;;;;5013090;28;20037;-62
2022/11/30 07:45:27;;;;;;;43.47;22.75;;;6.80;89.30;;;;;;5015240;28;20148;-62
2022/11/30 07:47:53;;;;;;;41.05;22.25;;;6.80;89.30;;;;;;5014784;28;20044;-62
2022/11/30 07:50:19;;;;;;;39.95;21.65;;;6.80;89.30;;;;;;5014219;28;20038;-60
2022/11/30 07:52:44;;;;;;;40.10;20.50;;;6.80;89.30;;;;;;5009788;28;20398;-61
2022/11/30 07:55:10;;;;;;;39.28;20.10;;;6.80;89.40;;;;;;5014630;28;20525;-61
2022/11/30 07:57:35;;;;;;;37.97;20.33;;;6.80;89.50;;;;;;5014818;28;20030;-62
2022/11/30 08:00:02;;;;;;;43.10;22.58;;;6.80;89.40;;;;;;5014972;28;20393;-63
2022/11/30 08:02:28;;;;;;;40.55;20.95;;;6.80;89.30;;;;;;5014526;28;20037;-62
2022/11/30 08:04:56;;;;;;;41.88;21.65;;;6.80;89.30;;;;;;5013335;28;20030;-61
2022/11/30 08:07:22;;;;;;;38.45;21.15;;;6.70;89.30;;;;;;5014406;28;20128;-61
2022/11/30 08:09:47;;;;;;;42.38;21.48;;;6.70;89.50;;;;;;5014024;28;20192;-61
2022/11/30 08:12:13;;;;;;;38.85;20.17;;;6.70;89.50;;;;;;5013838;28;20041;-62
2022/11/30 08:14:39;;;;;;;40.63;20.77;;;6.80;89.70;;;;;;5013182;28;20034;-61
2022/11/30 08:17:04;;;;;;;40.50;21.23;;;6.80;89.90;;;;;;5014971;28;20073;-61
2022/11/30 08:19:30;;;;;;;48.47;22.38;;;6.80;89.70;;;;;;5012508;28;20038;-60
2022/11/30 08:21:56;;;;;;;39.72;20.50;;;6.80;89.70;;;;;;5014235;28;20448;-62
2022/11/30 08:24:21;;;;;;;41.03;21.23;;;6.80;89.70;;;;;;5013769;28;20041;-62
2022/11/30 08:26:51;;;;;;;47.60;24.10;;;6.80;89.70;;;;;;5013335;28;20034;-60
2022/11/30 08:29:16;;;;;;;39.53;20.05;;;6.80;89.70;;;;;;5012415;28;20068;-62
2022/11/30 08:31:43;;;;;;;41.88;20.90;;;6.80;89.70;;;;;;5014871;28;20144;-61
2022/11/30 08:34:11;;;;;;;41.75;20.25;;;6.80;89.70;;;;;;5012687;28;20133;-62
2022/11/30 08:36:38;;;;;;;38.90;19.48;;;6.80;89.70;;;;;;5012429;28;20476;-62
2022/11/30 08:39:06;;;;;;;41.00;19.92;;;6.80;89.60;;;;;;5014439;28;20055;-62
2022/11/30 08:41:33;;;;;;;40.50;19.20;;;6.80;89.70;;;;;;5015318;28;20515;-61
2022/11/30 08:43:59;;;;;;;35.85;19.10;;;6.70;89.70;;;;;;5015713;28;20045;-63
2022/11/30 08:46:25;;;;;;;39.85;18.95;;;6.70;89.90;;;;;;5016743;28;20096;-63
2022/11/30 08:48:51;;;;;;;34.70;17.55;;;6.70;90.00;;;;;;5016531;28;20049;-62
2022/11/30 08:51:18;;;;;;;34.92;18.33;;;6.80;90.00;;;;;;5019051;28;20034;-62
2022/11/30 08:53:45;;;;;;;36.50;18.58;;;6.80;90.10;;;;;;5015951;28;20511;-63
2022/11/30 08:56:13;;;;;;;35.65;18.08;;;6.80;90.00;;;;;;5017361;28;20041;-61
2022/11/30 08:58:39;;;;;;;34.70;17.67;;;6.80;90.00;;;;;;5017722;28;20125;-61
2022/11/30 09:01:17;;;;;;;34.28;16.85;;;6.80;90.00;;;;;;5016919;28;20121;-62
2022/11/30 09:03:44;;;;;;;37.78;18.58;;;6.90;90.00;;;;;;5012921;28;20025;-62
2022/11/30 09:06:21;;;;;;;36.45;18.25;;;6.80;89.90;;;;;;5017496;28;20042;-62
2022/11/30 09:08:49;;;;;;;34.00;17.48;;;6.80;89.70;;;;;;5016646;28;20120;-62
2022/11/30 09:11:17;;;;;;;34.92;17.80;;;6.80;89.60;;;;;;5013784;28;20036;-62
2022/11/30 09:13:44;;;;;;;35.55;17.50;;;6.80;89.70;;;;;;5016440;28;20061;-63
2022/11/30 09:16:11;;;;;;;36.47;17.42;;;6.80;90.20;;;;;;5017666;28;20083;-63
2022/11/30 09:18:37;;;;;;;35.10;16.85;;;6.80;89.70;;;;;;5016566;28;20053;-63
2022/11/30 09:21:05;;;;;;;34.22;17.30;;;6.80;89.70;;;;;;5016596;28;20042;-62
2022/11/30 09:23:31;;;;;;;32.15;16.48;;;6.80;89.70;;;;;;5016544;28;20544;-62
2022/11/30 09:25:58;;;;;;;33.65;17.08;;;6.80;89.70;;;;;;5017520;28;20038;-62
2022/11/30 09:28:25;;;;;;;30.70;15.98;;;6.80;89.70;;;;;;5014882;28;20450;-62
2022/11/30 09:30:50;;;;;;;29.52;15.82;;;6.80;89.70;;;;;;5016920;28;20034;-61
2022/11/30 09:33:16;;;;;;;32.05;16.48;;;6.80;89.70;;;;;;5017257;28;20671;-62
2022/11/30 09:35:41;;;;;;;28.63;15.48;;;6.80;89.70;;;;;;5017183;28;20079;-62
2022/11/30 09:38:07;;;;;;;27.05;14.75;;;6.80;89.60;;;;;;5018140;28;20045;-63
2022/11/30 09:40:37;;;;;;;27.45;15.18;;;6.80;89.60;;;;;;5016798;28;20034;-63
2022/11/30 09:43:24;;;;;;;26.52;14.13;;;6.80;89.50;;;;;;5017725;28;20050;-62
2022/11/30 09:45:55;;;;;;;23.73;12.98;;;6.80;89.40;;;;;;5017898;28;20041;-63
2022/11/30 09:48:47;;;;;;;20.08;11.50;;;6.80;90.10;;;;;;5017605;28;20065;-62
2022/11/30 09:51:18;;;;;;;16.15;10.05;;;6.80;89.20;;;;;;5000699;28;20037;-61
2022/11/30 09:53:50;;;;;;;18.67;11.00;;;6.80;88.90;;;;;;5014370;28;20026;-62
2022/11/30 09:56:23;;;;;;;18.33;10.50;;;6.80;88.80;;;;;;5016673;28;20030;-61
2022/11/30 09:59:19;;;;;;;16.15;10.20;;;6.80;88.70;;;;;;5015499;28;20088;-62
2022/11/30 10:01:47;;;;;;;16.42;9.73;;;6.80;88.00;;;;;;5007668;28;20187;-63
2022/11/30 10:04:32;;;;;;;19.10;9.43;;;6.80;88.10;;;;;;5015146;28;20911;-62
2022/11/30 10:07:00;;;;;;;;;;;6.70;87.80;;;;;;5014895;28;20520;-63
2022/11/30 10:09:54;;;;;;;14.38;8.50;;;6.80;87.90;;;;;;5015140;28;19921;-63
2022/11/30 10:12:27;;;;;;;14.57;9.20;;;6.70;87.60;;;;;;5012449;28;20390;-63
2022/11/30 10:15:19;;;;;;;16.20;9.95;;;6.70;87.90;;;;;;5015348;28;20381;-62
2022/11/30 10:17:55;;;;;;;17.95;10.98;;;6.70;88.00;;;;;;5014724;28;20034;-62
2022/11/30 10:20:29;;;;;;;18.02;10.65;;;6.70;87.90;;;;;;5015413;28;20420;-62
2022/11/30 10:23:09;;;;;;;16.17;9.90;;;6.70;88.00;;;;;;5015846;28;20038;-62
2022/11/30 10:25:38;;;;;;;15.40;8.82;;;6.70;88.00;;;;;;5018461;28;20060;-62
2022/11/30 10:28:22;;;;;;;17.30;10.00;;;6.70;88.00;;;;;;5014940;28;20930;-62
2022/11/30 10:30:48;;;;;;;19.05;10.77;;;6.70;88.10;;;;;;5015340;28;20034;-62
2022/11/30 10:33:22;;;;;;;18.92;11.10;;;6.70;88.10;;;;;;4998616;28;20022;-62
2022/11/30 10:35:51;;;;;;;19.88;11.40;;;6.70;88.30;;;;;;5015600;28;20034;-62
2022/11/30 10:38:24;;;;;;;21.35;11.35;;;6.80;88.50;;;;;;5016777;28;20034;-62
2022/11/30 10:41:30;;;;;;;19.40;11.27;;;6.80;88.40;;;;;;5013768;28;20104;-63
2022/11/30 10:44:09;;;;;;;15.05;9.30;;;6.80;88.20;;;;;;4925823;29;20035;-62
2022/11/30 10:46:39;;;;;;;14.43;8.90;;;6.90;87.90;;;;;;5004047;28;20539;-63
2022/11/30 10:49:10;;;;;;;11.52;7.97;;;6.90;87.70;;;;;;5016196;28;20042;-63
2022/11/30 10:51:39;;;;;;;14.10;9.13;;;6.90;87.70;;;;;;5017085;28;20042;-63
2022/11/30 10:54:14;;;;;;;14.63;8.82;;;6.90;87.70;;;;;;5014436;28;20045;-63
2022/11/30 10:56:40;;;;;;;;;;;6.90;87.50;;;;;;5015070;28;20038;-62
2022/11/30 10:59:25;;;;;;;14.25;8.25;;;6.90;87.40;;;;;;5015845;28;19943;-62
2022/11/30 11:01:52;;;;;;;14.88;8.63;;;7.00;87.60;;;;;;5016149;28;20129;-62
2022/11/30 11:04:23;;;;;;;14.43;8.82;;;6.90;87.60;;;;;;5013801;28;20034;-60
2022/11/30 11:06:58;;;;;;;14.00;8.57;;;7.00;87.60;;;;;;5015096;28;20067;-61
2022/11/30 11:09:31;;;;;;;14.85;8.43;;;6.90;87.60;;;;;;5014791;28;20046;-62
2022/11/30 11:12:20;;;;;;;15.10;8.93;;;6.90;87.60;;;;;;5015749;28;20663;-61
2022/11/30 11:14:46;;;;;;;13.60;8.07;;;7.00;87.60;;;;;;5012704;28;20076;-60
2022/11/30 11:17:17;;;;;;;12.60;8.30;;;7.00;87.50;;;;;;5014819;28;20034;-60
2022/11/30 11:19:45;;;;;;;11.32;8.05;;;7.00;87.30;;;;;;5014886;28;20056;-62
2022/11/30 11:22:21;;;;;;;11.57;7.30;;;7.00;87.50;;;;;;5012754;28;20063;-62
2022/11/30 11:24:54;;;;;;;12.07;7.78;;;7.00;87.40;;;;;;5014352;28;20139;-61
2022/11/30 11:27:29;;;;;;;11.10;7.65;;;6.90;87.30;;;;;;5014423;28;20045;-60
2022/11/30 11:30:26;;;;;;;10.63;7.70;;;7.00;87.30;;;;;;5013709;28;20325;-60
2022/11/30 11:33:00;;;;;;;10.80;7.50;;;7.00;87.30;;;;;;5014667;28;20444;-61
2022/11/30 11:35:45;;;;;;;11.45;7.38;;;7.00;87.30;;;;;;5015829;28;20045;-61
2022/11/30 11:38:28;;;;;;;;;;;7.00;87.20;;;;;;5016080;28;20038;-61
2022/11/30 11:40:59;;;;;;;12.30;7.32;;;7.00;87.00;;;;;;5015536;28;20364;-60
2022/11/30 11:43:27;;;;;;;10.77;7.43;;;7.00;87.10;;;;;;5015071;28;20501;-62
2022/11/30 11:46:01;;;;;;;12.68;7.72;;;7.00;87.10;;;;;;5013362;28;20469;-62
2022/11/30 11:48:34;;;;;;;12.10;8.37;;;7.00;87.20;;;;;;5014294;28;20045;-62
2022/11/30 11:51:04;;;;;;;12.48;8.13;;;7.00;87.20;;;;;;5013506;28;20439;-63
2022/11/30 11:53:40;;;;;;;13.48;8.60;;;7.00;87.10;;;;;;5016089;28;20447;-61
2022/11/30 11:56:18;;;;;;;11.48;7.90;;;7.00;86.90;;;;;;5013360;28;20034;-62
2022/11/30 11:58:55;;;;;;;12.82;8.50;;;7.00;87.00;;;;;;5015469;28;20045;-62
2022/11/30 12:01:38;;;;;;;11.50;8.10;;;7.00;87.00;;;;;;5015098;28;20077;-60
2022/11/30 12:04:42;;;;;;;15.40;8.85;;;7.00;87.10;;;;;;5013628;28;20065;-62
2022/11/30 12:07:37;;;;;;;15.30;9.20;;;7.00;87.00;;;;;;4934582;29;20062;-62
2022/11/30 12:10:36;;;;;;;15.90;9.20;;;7.00;86.90;;;;;;4936481;28;21013;-61
2022/11/30 12:13:07;;;;;;;15.30;9.38;;;7.00;87.00;;;;;;5005052;28;20060;-62
2022/11/30 12:15:48;;;;;;;15.00;9.50;;;7.00;87.10;;;;;;5013722;28;20041;-60
2022/11/30 12:18:24;;;;;;;14.45;9.27;;;7.00;86.80;;;;;;5019617;28;20161;-61
2022/11/30 12:21:04;;;;;;;14.82;9.73;;;6.90;86.70;;;;;;5014990;28;20040;-61
2022/11/30 12:23:40;;;;;;;13.20;9.15;;;6.90;86.70;;;;;;5018290;28;20041;-62
2022/11/30 12:26:18;;;;;;;12.88;8.93;;;6.90;86.80;;;;;;5018995;28;20045;-61
2022/11/30 12:29:18;;;;;;;15.05;9.60;;;6.90;86.90;;;;;;5017280;28;20042;-62
2022/11/30 12:32:00;;;;;;;14.20;9.38;;;6.80;86.80;;;;;;5017902;28;20038;-62
2022/11/30 12:34:59;;;;;;;13.43;8.68;;;6.90;87.10;;;;;;5017388;28;20524;-60
2022/11/30 12:37:42;;;;;;;12.93;8.48;;;6.80;86.90;;;;;;5018503;28;20521;-63
2022/11/30 12:40:18;;;;;;;12.93;8.43;;;6.80;87.00;;;;;;5019271;28;20065;-60
2022/11/30 12:42:50;;;;;;;12.80;8.13;;;6.80;86.70;;;;;;5016876;28;20034;-61
2022/11/30 12:45:38;;;;;;;12.48;8.35;;;6.80;86.90;;;;;;5017300;28;20034;-62
2022/11/30 12:48:09;;;;;;;11.48;7.88;;;6.80;87.00;;;;;;5016121;28;20045;-60
2022/11/30 12:51:13;;;;;;;11.90;8.55;;;6.80;87.20;;;;;;5016962;28;20053;-62
2022/11/30 12:54:03;;;;;;;13.40;8.55;;;6.80;87.80;;;;;;5006163;28;20531;-61
2022/11/30 12:56:37;;;;;;;12.73;8.07;;;6.80;87.00;;;;;;5016512;28;20561;-61
2022/11/30 12:59:18;;;;;;;13.80;8.05;;;6.80;87.20;;;;;;5017939;28;20501;-61
2022/11/30 13:01:43;;;;;;;14.57;8.38;;;6.80;87.10;;;;;;5017551;28;20029;-62